createdAt,value
2018-12-10T00:00:49.117Z,990.14
2018-12-10T00:01:49.107Z,990.09
2018-12-10T00:02:49.099Z,990.11
2018-12-10T00:03:49.095Z,990.13
2018-12-10T00:04:49.132Z,990.06
2018-12-10T00:05:49.076Z,990.08
2018-12-10T00:06:49.070Z,990.14
2018-12-10T00:07:49.061Z,990.14
2018-12-10T00:08:49.057Z,990.18
2018-12-10T00:09:49.049Z,990.16
2018-12-10T00:10:49.038Z,990.16
2018-12-10T00:11:49.032Z,990.2
2018-12-10T00:12:49.022Z,990.18
2018-12-10T00:13:49.016Z,990.22
2018-12-10T00:14:49.018Z,990.23
2018-12-10T00:15:49.001Z,990.28
2018-12-10T00:16:48.994Z,990.29
2018-12-10T00:17:49.006Z,990.27
2018-12-10T00:18:48.978Z,990.33
2018-12-10T00:19:48.974Z,990.26
2018-12-10T00:20:48.963Z,990.39
2018-12-10T00:21:48.952Z,990.31
2018-12-10T00:22:48.945Z,990.45
2018-12-10T00:23:48.939Z,990.4
2018-12-10T00:24:48.937Z,990.47
2018-12-10T00:25:48.926Z,990.37
2018-12-10T00:26:48.918Z,990.47
2018-12-10T00:27:48.921Z,990.38
2018-12-10T00:28:48.899Z,990.48
2018-12-10T00:29:48.890Z,990.5
2018-12-10T00:30:48.895Z,990.45
2018-12-10T00:31:48.878Z,990.4
2018-12-10T00:32:48.867Z,990.51
2018-12-10T00:33:48.858Z,990.47
2018-12-10T00:34:48.853Z,990.4
2018-12-10T00:35:48.843Z,990.47
2018-12-10T00:36:48.835Z,990.53
2018-12-10T00:37:48.825Z,990.51
2018-12-10T00:38:48.828Z,990.46
2018-12-10T00:39:48.814Z,990.48
2018-12-10T00:40:48.804Z,990.51
2018-12-10T00:41:48.796Z,990.5
2018-12-10T00:42:48.787Z,990.52
2018-12-10T00:43:48.776Z,990.55
2018-12-10T00:44:48.774Z,990.54
2018-12-10T00:45:48.775Z,990.59
2018-12-10T00:46:48.755Z,990.49
2018-12-10T00:47:48.746Z,990.53
2018-12-10T00:48:48.741Z,990.5
2018-12-10T00:49:48.732Z,990.41
2018-12-10T00:50:48.725Z,990.51
2018-12-10T00:51:48.713Z,990.65
2018-12-10T00:52:48.716Z,990.73
2018-12-10T00:53:48.699Z,990.68
2018-12-10T00:54:48.691Z,990.74
2018-12-10T00:55:48.684Z,990.75
2018-12-10T00:56:48.673Z,990.8
2018-12-10T00:57:48.664Z,990.78
2018-12-10T00:58:48.658Z,990.85
2018-12-10T00:59:48.655Z,990.85
2018-12-10T01:00:48.640Z,990.84
2018-12-10T01:01:48.633Z,990.79
2018-12-10T01:02:48.636Z,990.86
2018-12-10T01:03:48.617Z,990.92
2018-12-10T01:04:48.612Z,990.88
2018-12-10T01:05:48.600Z,990.94
2018-12-10T01:06:48.598Z,990.94
2018-12-10T01:07:48.586Z,990.9
2018-12-10T01:08:48.577Z,990.85
2018-12-10T01:09:48.570Z,990.87
2018-12-10T01:10:48.560Z,990.97
2018-12-10T01:11:48.560Z,991.07
2018-12-10T01:12:48.546Z,991.02
2018-12-10T01:13:48.540Z,990.96
2018-12-10T01:14:48.530Z,991.08
2018-12-10T01:15:48.521Z,990.99
2018-12-10T01:16:48.514Z,991.03
2018-12-10T01:17:48.504Z,991.07
2018-12-10T01:18:48.501Z,991.14
2018-12-10T01:19:48.490Z,991.17
2018-12-10T01:20:48.480Z,991.14
2018-12-10T01:21:48.474Z,991.1
2018-12-10T01:22:48.466Z,991.2
2018-12-10T01:23:48.458Z,991.15
2018-12-10T01:24:48.453Z,991.24
2018-12-10T01:25:48.439Z,991.2
2018-12-10T01:26:48.435Z,991.2
2018-12-10T01:27:48.424Z,991.28
2018-12-10T01:28:48.414Z,991.29
2018-12-10T01:29:48.410Z,991.3
2018-12-10T01:30:48.403Z,991.35
2018-12-10T01:31:48.393Z,991.37
2018-12-10T01:32:48.383Z,991.33
2018-12-10T01:33:48.375Z,991.4
2018-12-10T01:34:48.371Z,991.35
2018-12-10T01:35:48.357Z,991.4
2018-12-10T01:36:48.351Z,991.43
2018-12-10T01:37:48.358Z,991.45
2018-12-10T01:38:48.341Z,991.43
2018-12-10T01:39:48.331Z,991.41
2018-12-10T01:40:48.319Z,991.45
2018-12-10T01:41:48.311Z,991.47
2018-12-10T01:42:48.307Z,991.47
2018-12-10T01:43:48.297Z,991.54
2018-12-10T01:44:48.287Z,991.59
2018-12-10T01:45:48.287Z,991.5
2018-12-10T01:46:48.287Z,991.52
2018-12-10T01:47:48.264Z,991.59
2018-12-10T01:48:48.266Z,991.54
2018-12-10T01:49:48.246Z,991.54
2018-12-10T01:50:48.239Z,991.56
2018-12-10T01:51:48.234Z,991.58
2018-12-10T01:52:48.224Z,991.57
2018-12-10T01:53:48.222Z,991.54
2018-12-10T01:54:48.206Z,991.61
2018-12-10T01:55:48.199Z,991.62
2018-12-10T01:56:48.194Z,991.67
2018-12-10T01:57:48.182Z,991.66
2018-12-10T01:58:48.176Z,991.63
2018-12-10T01:59:48.166Z,991.69
2018-12-10T02:00:48.160Z,991.75
2018-12-10T02:01:48.160Z,991.77
2018-12-10T02:02:48.145Z,991.7
2018-12-10T02:03:48.135Z,991.72
2018-12-10T02:04:48.126Z,991.73
2018-12-10T02:05:48.123Z,991.7
2018-12-10T02:06:48.109Z,991.74
2018-12-10T02:07:48.101Z,991.69
2018-12-10T02:08:48.133Z,991.75
2018-12-10T02:09:48.086Z,991.68
2018-12-10T02:10:48.079Z,991.72
2018-12-10T02:11:48.072Z,991.78
2018-12-10T02:12:48.063Z,991.78
2018-12-10T02:13:48.055Z,991.74
2018-12-10T02:14:48.048Z,991.69
2018-12-10T02:15:48.037Z,991.72
2018-12-10T02:16:48.028Z,991.73
2018-12-10T02:17:48.025Z,991.82
2018-12-10T02:18:48.016Z,991.84
2018-12-10T02:19:48.008Z,991.81
2018-12-10T02:20:48.002Z,991.94
2018-12-10T02:21:47.996Z,991.85
2018-12-10T02:22:47.987Z,991.88
2018-12-10T02:23:47.990Z,991.96
2018-12-10T02:24:47.966Z,991.97
2018-12-10T02:25:47.960Z,992.01
2018-12-10T02:26:47.950Z,991.93
2018-12-10T02:27:47.942Z,991.99
2018-12-10T02:28:47.944Z,991.91
2018-12-10T02:29:47.928Z,992
2018-12-10T02:30:47.945Z,991.9
2018-12-10T02:31:47.912Z,991.99
2018-12-10T02:32:47.907Z,992
2018-12-10T02:33:47.896Z,991.98
2018-12-10T02:34:47.886Z,992.14
2018-12-10T02:35:47.881Z,992.1
2018-12-10T02:36:47.873Z,992.11
2018-12-10T02:37:47.862Z,992.12
2018-12-10T02:38:47.856Z,992.08
2018-12-10T02:39:47.851Z,992.16
2018-12-10T02:40:47.844Z,992.21
2018-12-10T02:41:47.833Z,992.12
2018-12-10T02:42:47.832Z,992.14
2018-12-10T02:43:47.824Z,992.23
2018-12-10T02:44:47.809Z,992.26
2018-12-10T02:45:47.799Z,992.32
2018-12-10T02:46:47.797Z,992.36
2018-12-10T02:47:47.785Z,992.32
2018-12-10T02:48:47.785Z,992.39
2018-12-10T02:49:47.775Z,992.35
2018-12-10T02:50:47.762Z,992.39
2018-12-10T02:51:47.753Z,992.5
2018-12-10T02:52:47.744Z,992.46
2018-12-10T02:53:47.738Z,992.48
2018-12-10T02:54:47.731Z,992.38
2018-12-10T02:55:47.721Z,992.41
2018-12-10T02:56:47.722Z,992.37
2018-12-10T02:57:47.714Z,992.43
2018-12-10T02:58:47.715Z,992.43
2018-12-10T02:59:47.689Z,992.37
2018-12-10T03:00:47.680Z,992.39
2018-12-10T03:01:47.672Z,992.48
2018-12-10T03:02:47.665Z,992.46
2018-12-10T03:03:47.656Z,992.54
2018-12-10T03:04:47.651Z,992.47
2018-12-10T03:05:47.639Z,992.47
2018-12-10T03:06:47.632Z,992.47
2018-12-10T03:07:47.635Z,992.49
2018-12-10T03:08:47.622Z,992.47
2018-12-10T03:09:47.609Z,992.54
2018-12-10T03:10:47.608Z,992.53
2018-12-10T03:11:47.592Z,992.53
2018-12-10T03:12:47.584Z,992.6
2018-12-10T03:13:47.579Z,992.59
2018-12-10T03:14:47.566Z,992.58
2018-12-10T03:15:47.575Z,992.59
2018-12-10T03:16:47.555Z,992.61
2018-12-10T03:17:47.547Z,992.64
2018-12-10T03:18:47.576Z,992.61
2018-12-10T03:19:47.527Z,992.63
2018-12-10T03:20:47.522Z,992.71
2018-12-10T03:21:47.514Z,992.72
2018-12-10T03:22:47.507Z,992.64
2018-12-10T03:23:47.498Z,992.75
2018-12-10T03:24:47.488Z,992.67
2018-12-10T03:25:47.480Z,992.66
2018-12-10T03:26:47.472Z,992.71
2018-12-10T03:27:47.466Z,992.74
2018-12-10T03:28:47.457Z,992.71
2018-12-10T03:29:47.445Z,992.71
2018-12-10T03:30:47.456Z,992.66
2018-12-10T03:31:47.441Z,992.72
2018-12-10T03:32:47.454Z,992.72
2018-12-10T03:33:47.416Z,992.7
2018-12-10T03:34:47.409Z,992.77
2018-12-10T03:35:47.402Z,992.77
2018-12-10T03:36:47.394Z,992.81
2018-12-10T03:37:47.384Z,992.85
2018-12-10T03:38:47.396Z,992.88
2018-12-10T03:39:47.368Z,992.84
2018-12-10T03:40:47.359Z,992.86
2018-12-10T03:41:47.366Z,992.91
2018-12-10T03:42:47.343Z,992.87
2018-12-10T03:43:47.351Z,992.92
2018-12-10T03:44:47.340Z,992.92
2018-12-10T03:45:47.318Z,992.85
2018-12-10T03:46:47.311Z,992.91
2018-12-10T03:47:47.302Z,992.92
2018-12-10T03:48:47.297Z,992.85
2018-12-10T03:49:47.289Z,992.9
2018-12-10T03:50:47.295Z,992.92
2018-12-10T03:51:47.270Z,992.89
2018-12-10T03:52:47.270Z,992.91
2018-12-10T03:53:47.255Z,992.91
2018-12-10T03:54:47.246Z,992.92
2018-12-10T03:55:47.243Z,992.9
2018-12-10T03:56:47.231Z,992.88
2018-12-10T03:57:47.223Z,992.91
2018-12-10T03:58:47.214Z,992.9
2018-12-10T03:59:47.210Z,992.91
2018-12-10T04:00:47.202Z,992.85
2018-12-10T04:01:47.191Z,992.97
2018-12-10T04:02:47.184Z,992.88
2018-12-10T04:03:47.175Z,992.93
2018-12-10T04:04:47.171Z,992.94
2018-12-10T04:05:47.158Z,992.93
2018-12-10T04:06:47.154Z,992.95
2018-12-10T04:07:47.148Z,992.96
2018-12-10T04:08:47.136Z,992.97
2018-12-10T04:09:47.128Z,992.97
2018-12-10T04:10:47.119Z,993.02
2018-12-10T04:11:47.110Z,993.06
2018-12-10T04:12:47.109Z,993.07
2018-12-10T04:13:47.096Z,993.01
2018-12-10T04:14:47.095Z,992.97
2018-12-10T04:15:47.076Z,992.96
2018-12-10T04:16:47.088Z,992.91
2018-12-10T04:17:47.062Z,993.01
2018-12-10T04:18:47.055Z,992.92
2018-12-10T04:19:47.167Z,993.01
2018-12-10T04:20:47.044Z,992.96
2018-12-10T04:21:47.033Z,992.95
2018-12-10T04:22:47.021Z,992.9
2018-12-10T04:23:47.013Z,992.88
2018-12-10T04:24:47.004Z,992.92
2018-12-10T04:25:47.002Z,992.89
2018-12-10T04:26:46.991Z,992.88
2018-12-10T04:27:46.989Z,992.97
2018-12-10T04:28:46.974Z,993
2018-12-10T04:29:46.972Z,992.98
2018-12-10T04:30:46.967Z,993.09
2018-12-10T04:31:46.950Z,993.08
2018-12-10T04:32:46.943Z,993.09
2018-12-10T04:33:46.934Z,993.1
2018-12-10T04:34:46.935Z,993.2
2018-12-10T04:35:46.916Z,993.19
2018-12-10T04:36:46.907Z,993.15
2018-12-10T04:37:46.898Z,993.09
2018-12-10T04:38:46.893Z,993.24
2018-12-10T04:39:46.887Z,993.14
2018-12-10T04:40:46.888Z,993.14
2018-12-10T04:41:46.867Z,993.09
2018-12-10T04:42:46.859Z,993.24
2018-12-10T04:43:46.859Z,993.15
2018-12-10T04:44:46.841Z,993.19
2018-12-10T04:45:46.832Z,993.25
2018-12-10T04:46:46.827Z,993.23
2018-12-10T04:47:46.822Z,993.22
2018-12-10T04:48:46.809Z,993.27
2018-12-10T04:49:46.799Z,993.3
2018-12-10T04:50:46.791Z,993.24
2018-12-10T04:51:46.782Z,993.29
2018-12-10T04:52:46.776Z,993.35
2018-12-10T04:53:46.766Z,993.32
2018-12-10T04:54:46.766Z,993.31
2018-12-10T04:55:46.751Z,993.3
2018-12-10T04:56:46.742Z,993.38
2018-12-10T04:57:46.736Z,993.34
2018-12-10T04:58:46.726Z,993.39
2018-12-10T04:59:52.674Z,993.4
2018-12-10T05:00:46.714Z,993.45
2018-12-10T05:01:46.702Z,993.38
2018-12-10T05:02:46.692Z,993.47
2018-12-10T05:03:46.683Z,993.48
2018-12-10T05:04:46.675Z,993.46
2018-12-10T05:05:46.680Z,993.43
2018-12-10T05:06:46.675Z,993.46
2018-12-10T05:07:46.653Z,993.4
2018-12-10T05:08:46.642Z,993.49
2018-12-10T05:09:46.636Z,993.48
2018-12-10T05:10:46.626Z,993.48
2018-12-10T05:11:46.620Z,993.55
2018-12-10T05:12:46.611Z,993.58
2018-12-10T05:13:46.607Z,993.56
2018-12-10T05:14:46.592Z,993.53
2018-12-10T05:15:46.585Z,993.5
2018-12-10T05:16:46.585Z,993.49
2018-12-10T05:17:46.572Z,993.51
2018-12-10T05:18:46.559Z,993.62
2018-12-10T05:19:46.552Z,993.54
2018-12-10T05:20:46.553Z,993.62
2018-12-10T05:21:46.538Z,993.69
2018-12-10T05:22:46.541Z,993.65
2018-12-10T05:23:46.533Z,993.64
2018-12-10T05:24:46.514Z,993.71
2018-12-10T05:25:46.506Z,993.75
2018-12-10T05:26:46.492Z,993.67
2018-12-10T05:27:46.488Z,993.79
2018-12-10T05:28:46.525Z,993.84
2018-12-10T05:29:46.480Z,993.86
2018-12-10T05:30:46.475Z,993.94
2018-12-10T05:31:46.448Z,993.92
2018-12-10T05:32:46.465Z,993.9
2018-12-10T05:33:46.432Z,993.99
2018-12-10T05:34:46.426Z,993.85
2018-12-10T05:35:46.424Z,993.95
2018-12-10T05:36:46.408Z,994.02
2018-12-10T05:37:46.401Z,993.97
2018-12-10T05:38:46.390Z,993.94
2018-12-10T05:39:46.388Z,993.96
2018-12-10T05:40:46.375Z,993.89
2018-12-10T05:41:46.365Z,994
2018-12-10T05:42:46.359Z,994.01
2018-12-10T05:43:46.347Z,994.12
2018-12-10T05:44:46.341Z,994.11
2018-12-10T05:45:46.339Z,994.19
2018-12-10T05:46:46.335Z,994.12
2018-12-10T05:47:46.311Z,994.13
2018-12-10T05:48:46.305Z,994.21
2018-12-10T05:49:46.296Z,994.16
2018-12-10T05:50:46.285Z,994.2
2018-12-10T05:51:46.278Z,994.31
2018-12-10T05:52:46.267Z,994.15
2018-12-10T05:53:46.260Z,994.19
2018-12-10T05:54:46.258Z,994.23
2018-12-10T05:55:46.240Z,994.22
2018-12-10T05:56:46.232Z,994.2
2018-12-10T05:57:46.231Z,994.16
2018-12-10T05:58:46.212Z,994.12
2018-12-10T05:59:46.203Z,994.08
2018-12-10T06:00:46.197Z,994.06
2018-12-10T06:01:46.182Z,994.14
2018-12-10T06:02:46.193Z,994.2
2018-12-10T06:03:46.165Z,994.35
2018-12-10T06:04:46.156Z,994.32
2018-12-10T06:05:46.145Z,994.36
2018-12-10T06:06:46.136Z,994.41
2018-12-10T06:07:46.131Z,994.33
2018-12-10T06:08:46.121Z,994.41
2018-12-10T06:09:46.119Z,994.38
2018-12-10T06:10:46.102Z,994.44
2018-12-10T06:11:46.094Z,994.41
2018-12-10T06:12:46.081Z,994.5
2018-12-10T06:13:46.084Z,994.52
2018-12-10T06:14:46.068Z,994.56
2018-12-10T06:15:46.055Z,994.55
2018-12-10T06:16:46.045Z,994.59
2018-12-10T06:17:46.036Z,994.57
2018-12-10T06:18:46.027Z,994.6
2018-12-10T06:19:46.021Z,994.65
2018-12-10T06:20:46.015Z,994.66
2018-12-10T06:21:46.008Z,994.64
2018-12-10T06:22:45.990Z,994.64
2018-12-10T06:23:45.981Z,994.66
2018-12-10T06:24:45.981Z,994.65
2018-12-10T06:25:45.962Z,994.67
2018-12-10T06:26:45.969Z,994.67
2018-12-10T06:27:45.951Z,994.66
2018-12-10T06:28:45.938Z,994.59
2018-12-10T06:29:45.927Z,994.64
2018-12-10T06:30:45.916Z,994.64
2018-12-10T06:31:45.909Z,994.7
2018-12-10T06:32:45.900Z,994.59
2018-12-10T06:33:45.887Z,994.65
2018-12-10T06:34:45.881Z,994.68
2018-12-10T06:35:45.881Z,994.74
2018-12-10T06:36:45.861Z,994.67
2018-12-10T06:37:45.850Z,994.76
2018-12-10T06:38:45.837Z,994.7
2018-12-10T06:39:45.832Z,994.69
2018-12-10T06:40:45.823Z,994.73
2018-12-10T06:41:45.817Z,994.76
2018-12-10T06:42:45.805Z,994.79
2018-12-10T06:43:45.810Z,994.83
2018-12-10T06:44:45.786Z,994.79
2018-12-10T06:45:45.777Z,994.79
2018-12-10T06:46:45.780Z,994.83
2018-12-10T06:47:45.764Z,994.8
2018-12-10T06:48:45.749Z,994.8
2018-12-10T06:49:45.739Z,994.79
2018-12-10T06:50:45.731Z,994.8
2018-12-10T06:51:45.720Z,994.8
2018-12-10T06:52:45.713Z,994.85
2018-12-10T06:53:45.703Z,994.87
2018-12-10T06:54:45.696Z,994.82
2018-12-10T06:55:45.683Z,994.86
2018-12-10T06:56:45.686Z,994.91
2018-12-10T06:57:45.666Z,994.86
2018-12-10T06:58:45.657Z,994.85
2018-12-10T06:59:45.648Z,994.88
2018-12-10T07:00:45.637Z,994.92
2018-12-10T07:01:45.630Z,994.95
2018-12-10T07:02:45.644Z,994.88
2018-12-10T07:03:45.610Z,994.89
2018-12-10T07:04:45.602Z,994.93
2018-12-10T07:05:45.593Z,994.95
2018-12-10T07:06:45.595Z,994.98
2018-12-10T07:07:45.577Z,995
2018-12-10T07:08:45.566Z,994.99
2018-12-10T07:09:45.557Z,995.03
2018-12-10T07:10:45.546Z,995.02
2018-12-10T07:11:45.536Z,995.09
2018-12-10T07:12:45.529Z,995.05
2018-12-10T07:13:45.574Z,995.05
2018-12-10T07:14:45.509Z,995.08
2018-12-10T07:15:45.502Z,995.04
2018-12-10T07:16:45.502Z,995.1
2018-12-10T07:17:45.483Z,995.09
2018-12-10T07:18:45.473Z,995.15
2018-12-10T07:19:45.467Z,995.09
2018-12-10T07:20:45.456Z,995.08
2018-12-10T07:21:45.466Z,995.19
2018-12-10T07:22:45.448Z,995.16
2018-12-10T07:23:45.458Z,995.11
2018-12-10T07:24:45.424Z,995.09
2018-12-10T07:25:45.412Z,995.18
2018-12-10T07:26:45.404Z,995.14
2018-12-10T07:27:45.399Z,995.21
2018-12-10T07:28:45.385Z,995.22
2018-12-10T07:29:45.388Z,995.21
2018-12-10T07:30:45.394Z,995.23
2018-12-10T07:31:45.362Z,995.26
2018-12-10T07:32:45.442Z,995.17
2018-12-10T07:33:45.347Z,995.21
2018-12-10T07:34:45.327Z,995.27
2018-12-10T07:35:45.330Z,995.29
2018-12-10T07:36:45.314Z,995.3
2018-12-10T07:37:45.299Z,995.23
2018-12-10T07:38:45.293Z,995.25
2018-12-10T07:39:45.282Z,995.16
2018-12-10T07:40:45.275Z,995.14
2018-12-10T07:41:45.264Z,995.17
2018-12-10T07:42:45.259Z,995.2
2018-12-10T07:43:45.251Z,995.21
2018-12-10T07:44:45.237Z,995.21
2018-12-10T07:45:45.229Z,995.19
2018-12-10T07:46:45.222Z,995.15
2018-12-10T07:47:45.211Z,995.27
2018-12-10T07:48:45.210Z,995.22
2018-12-10T07:49:45.195Z,995.22
2018-12-10T07:50:45.185Z,995.31
2018-12-10T07:51:45.185Z,995.31
2018-12-10T07:52:45.167Z,995.32
2018-12-10T07:53:45.161Z,995.39
2018-12-10T07:54:45.148Z,995.36
2018-12-10T07:55:45.138Z,995.33
2018-12-10T07:56:45.131Z,995.4
2018-12-10T07:57:45.122Z,995.45
2018-12-10T07:58:45.113Z,995.49
2018-12-10T07:59:45.102Z,995.48
2018-12-10T08:00:45.097Z,995.5
2018-12-10T08:01:45.086Z,995.48
2018-12-10T08:02:45.182Z,995.49
2018-12-10T08:03:45.070Z,995.49
2018-12-10T08:04:45.061Z,995.49
2018-12-10T08:05:45.055Z,995.6
2018-12-10T08:06:45.043Z,995.55
2018-12-10T08:07:45.038Z,995.6
2018-12-10T08:08:45.027Z,995.57
2018-12-10T08:09:45.015Z,995.65
2018-12-10T08:10:45.009Z,995.58
2018-12-10T08:11:44.998Z,995.57
2018-12-10T08:12:44.994Z,995.57
2018-12-10T08:13:44.985Z,995.66
2018-12-10T08:14:44.985Z,995.7
2018-12-10T08:15:45.043Z,995.63
2018-12-10T08:16:44.958Z,995.68
2018-12-10T08:17:44.952Z,995.72
2018-12-10T08:18:44.954Z,995.7
2018-12-10T08:19:44.935Z,995.73
2018-12-10T08:20:44.928Z,995.71
2018-12-10T08:21:44.916Z,995.69
2018-12-10T08:22:44.908Z,995.73
2018-12-10T08:23:44.901Z,995.71
2018-12-10T08:24:44.909Z,995.84
2018-12-10T08:25:44.883Z,995.78
2018-12-10T08:26:44.873Z,995.78
2018-12-10T08:27:44.865Z,995.82
2018-12-10T08:28:44.864Z,995.8
2018-12-10T08:31:03.835Z,995.87
2018-12-10T08:32:03.807Z,995.83
2018-12-10T08:33:03.796Z,995.84
2018-12-10T08:34:03.792Z,995.91
2018-12-10T08:35:03.784Z,995.91
2018-12-10T08:36:03.777Z,995.88
2018-12-10T08:37:03.771Z,995.89
2018-12-10T08:38:03.765Z,995.9
2018-12-10T08:39:03.749Z,995.9
2018-12-10T08:40:03.747Z,995.95
2018-12-10T08:41:03.781Z,995.96
2018-12-10T08:42:03.723Z,995.94
2018-12-10T08:43:03.714Z,995.94
2018-12-10T08:44:03.707Z,995.9
2018-12-10T08:45:03.698Z,996
2018-12-10T08:46:03.691Z,995.91
2018-12-10T08:47:03.684Z,996.01
2018-12-10T08:48:03.679Z,995.99
2018-12-10T08:49:03.666Z,995.99
2018-12-10T08:50:03.658Z,996.05
2018-12-10T08:51:03.756Z,996.04
2018-12-10T08:52:03.642Z,996.11
2018-12-10T08:53:03.640Z,996.08
2018-12-10T08:54:03.626Z,996.09
2018-12-10T08:55:03.618Z,996.12
2018-12-10T08:56:03.610Z,996.1
2018-12-10T08:57:03.620Z,996.14
2018-12-10T08:58:03.594Z,996.13
2018-12-10T08:59:03.585Z,996.1
2018-12-10T09:00:03.576Z,996.1
2018-12-10T09:01:03.585Z,996.16
2018-12-10T09:02:03.561Z,996.16
2018-12-10T09:03:03.555Z,996.13
2018-12-10T09:04:03.556Z,996.05
2018-12-10T09:05:03.539Z,996.15
2018-12-10T09:06:03.532Z,996.07
2018-12-10T09:07:03.524Z,996.15
2018-12-10T09:08:03.515Z,996.18
2018-12-10T09:09:03.507Z,996.16
2018-12-10T09:10:03.497Z,996.13
2018-12-10T09:11:03.501Z,996.16
2018-12-10T09:12:03.492Z,996.15
2018-12-10T09:13:03.476Z,996.2
2018-12-10T09:14:03.470Z,996.2
2018-12-10T09:15:03.457Z,996.17
2018-12-10T09:16:03.517Z,996.19
2018-12-10T09:17:03.443Z,996.24
2018-12-10T09:18:03.436Z,996.2
2018-12-10T09:19:03.430Z,996.22
2018-12-10T09:20:03.423Z,996.17
2018-12-10T09:21:03.417Z,996.25
2018-12-10T09:22:03.406Z,996.25
2018-12-10T09:23:03.403Z,996.25
2018-12-10T09:24:03.393Z,996.23
2018-12-10T09:25:03.389Z,996.27
2018-12-10T09:26:03.391Z,996.28
2018-12-10T09:27:03.368Z,996.25
2018-12-10T09:28:03.360Z,996.22
2018-12-10T09:29:03.350Z,996.17
2018-12-10T09:30:03.344Z,996.18
2018-12-10T09:31:03.437Z,996.23
2018-12-10T09:32:03.332Z,996.33
2018-12-10T09:33:03.323Z,996.22
2018-12-10T09:34:03.323Z,996.24
2018-12-10T09:35:03.315Z,996.26
2018-12-10T09:36:03.334Z,996.26
2018-12-10T09:37:03.295Z,996.28
2018-12-10T09:38:03.287Z,996.3
2018-12-10T09:39:03.277Z,996.26
2018-12-10T09:40:03.269Z,996.27
2018-12-10T09:41:03.317Z,996.27
2018-12-10T09:42:03.254Z,996.24
2018-12-10T09:43:03.249Z,996.26
2018-12-10T09:44:03.241Z,996.28
2018-12-10T09:45:03.242Z,996.27
2018-12-10T09:46:03.229Z,996.32
2018-12-10T09:47:03.221Z,996.37
2018-12-10T09:48:03.213Z,996.35
2018-12-10T09:49:03.215Z,996.39
2018-12-10T09:50:03.194Z,996.43
2018-12-10T09:51:03.187Z,996.45
2018-12-10T09:52:03.184Z,996.48
2018-12-10T09:53:03.178Z,996.45
2018-12-10T09:54:03.168Z,996.44
2018-12-10T09:55:03.162Z,996.41
2018-12-10T09:56:03.156Z,996.41
2018-12-10T09:57:03.146Z,996.45
2018-12-10T09:58:03.141Z,996.49
2018-12-10T09:59:03.133Z,996.5
2018-12-10T10:00:03.123Z,996.52
2018-12-10T10:01:03.160Z,996.51
2018-12-10T10:02:03.210Z,996.44
2018-12-10T10:03:03.104Z,996.49
2018-12-10T10:04:03.099Z,996.48
2018-12-10T10:05:03.091Z,996.49
2018-12-10T10:06:03.091Z,996.51
2018-12-10T10:07:03.079Z,996.49
2018-12-10T10:08:03.082Z,996.5
2018-12-10T10:09:03.070Z,996.47
2018-12-10T10:10:03.059Z,996.52
2018-12-10T10:11:03.080Z,996.44
2018-12-10T10:12:03.042Z,996.46
2018-12-10T10:13:03.038Z,996.45
2018-12-10T10:14:03.042Z,996.41
2018-12-10T10:15:03.025Z,996.38
2018-12-10T10:16:03.017Z,996.36
2018-12-10T10:17:03.013Z,996.34
2018-12-10T10:18:03.008Z,996.44
2018-12-10T10:19:03.000Z,996.44
2018-12-10T10:20:02.996Z,996.36
2018-12-10T10:21:03.045Z,996.42
2018-12-10T10:22:02.989Z,996.48
2018-12-10T10:23:02.974Z,996.43
2018-12-10T10:24:02.966Z,996.43
2018-12-10T10:25:02.957Z,996.48
2018-12-10T10:26:02.962Z,996.37
2018-12-10T10:27:02.943Z,996.37
2018-12-10T10:28:02.940Z,996.43
2018-12-10T10:29:02.941Z,996.41
2018-12-10T10:30:02.925Z,996.36
2018-12-10T10:31:02.943Z,996.36
2018-12-10T10:32:02.915Z,996.36
2018-12-10T10:33:02.904Z,996.44
2018-12-10T10:34:02.897Z,996.4
2018-12-10T10:35:02.900Z,996.4
2018-12-10T10:36:02.936Z,996.38
2018-12-10T10:37:02.878Z,996.32
2018-12-10T10:38:02.869Z,996.42
2018-12-10T10:39:02.864Z,996.41
2018-12-10T10:40:04.572Z,996.43
2018-12-10T10:41:03.072Z,996.39
2018-12-10T10:42:02.841Z,996.48
2018-12-10T10:43:02.835Z,996.45
2018-12-10T10:44:02.828Z,996.48
2018-12-10T10:45:02.820Z,996.41
2018-12-10T10:46:02.812Z,996.35
2018-12-10T10:47:02.812Z,996.43
2018-12-10T10:48:02.800Z,996.41
2018-12-10T10:49:02.791Z,996.4
2018-12-10T10:50:02.783Z,996.44
2018-12-10T10:51:02.776Z,996.37
2018-12-10T10:52:03.569Z,996.39
2018-12-10T10:53:02.763Z,996.45
2018-12-10T10:54:02.834Z,996.38
2018-12-10T10:55:02.747Z,996.43
2018-12-10T10:56:02.824Z,996.4
2018-12-10T10:57:02.736Z,996.43
2018-12-10T10:58:02.726Z,996.32
2018-12-10T10:59:02.738Z,996.39
2018-12-10T11:00:02.714Z,996.4
2018-12-10T11:01:02.708Z,996.39
2018-12-10T11:02:02.697Z,996.32
2018-12-10T11:03:02.686Z,996.34
2018-12-10T11:04:02.679Z,996.36
2018-12-10T11:05:02.674Z,996.38
2018-12-10T11:06:02.677Z,996.43
2018-12-10T11:07:02.670Z,996.27
2018-12-10T11:08:02.652Z,996.36
2018-12-10T11:09:02.645Z,996.42
2018-12-10T11:10:02.644Z,996.38
2018-12-10T11:11:02.629Z,996.4
2018-12-10T11:12:02.623Z,996.47
2018-12-10T11:13:02.616Z,996.44
2018-12-10T11:14:02.613Z,996.41
2018-12-10T11:15:02.609Z,996.38
2018-12-10T11:16:02.638Z,996.43
2018-12-10T11:17:02.584Z,996.37
2018-12-10T11:18:02.574Z,996.34
2018-12-10T11:19:02.573Z,996.36
2018-12-10T11:20:02.564Z,996.39
2018-12-10T11:21:02.551Z,996.39
2018-12-10T11:22:02.554Z,996.42
2018-12-10T11:23:02.538Z,996.4
2018-12-10T11:24:02.533Z,996.49
2018-12-10T11:25:02.527Z,996.45
2018-12-10T11:26:02.517Z,996.42
2018-12-10T11:27:02.513Z,996.45
2018-12-10T11:28:02.506Z,996.44
2018-12-10T11:29:02.514Z,996.47
2018-12-10T11:30:02.496Z,996.38
2018-12-10T11:31:02.483Z,996.42
2018-12-10T11:32:02.476Z,996.42
2018-12-10T11:33:02.471Z,996.45
2018-12-10T11:34:02.470Z,996.46
2018-12-10T11:35:02.457Z,996.47
2018-12-10T11:36:02.449Z,996.49
2018-12-10T11:37:02.442Z,996.39
2018-12-10T11:38:02.441Z,996.46
2018-12-10T11:39:02.426Z,996.42
2018-12-10T11:40:02.420Z,996.41
2018-12-10T11:41:02.416Z,996.44
2018-12-10T11:42:02.408Z,996.36
2018-12-10T11:43:02.401Z,996.36
2018-12-10T11:44:02.397Z,996.41
2018-12-10T11:45:02.389Z,996.41
2018-12-10T11:46:02.383Z,996.34
2018-12-10T11:47:02.376Z,996.34
2018-12-10T11:48:02.385Z,996.31
2018-12-10T11:49:02.359Z,996.27
2018-12-10T11:50:02.357Z,996.32
2018-12-10T11:51:02.344Z,996.35
2018-12-10T11:52:02.344Z,996.38
2018-12-10T11:53:02.344Z,996.31
2018-12-10T11:54:03.847Z,996.33
2018-12-10T11:55:02.320Z,996.33
2018-12-10T11:56:02.312Z,996.26
2018-12-10T11:57:02.307Z,996.25
2018-12-10T11:58:02.301Z,996.24
2018-12-10T11:59:02.291Z,996.2
2018-12-10T12:00:02.282Z,996.22
2018-12-10T12:01:02.282Z,996.16
2018-12-10T12:02:02.277Z,996.12
2018-12-10T12:03:02.264Z,996.15
2018-12-10T12:04:02.257Z,996.17
2018-12-10T12:05:02.250Z,996.14
2018-12-10T12:06:02.242Z,996.04
2018-12-10T12:07:02.244Z,996.1
2018-12-10T12:08:02.231Z,996.12
2018-12-10T12:09:02.231Z,996.13
2018-12-10T12:10:02.215Z,996.07
2018-12-10T12:11:02.211Z,996.01
2018-12-10T12:12:03.963Z,996.05
2018-12-10T12:13:02.196Z,996.03
2018-12-10T12:14:02.189Z,996.05
2018-12-10T12:15:02.182Z,996.01
2018-12-10T12:16:02.173Z,995.99
2018-12-10T12:17:02.166Z,996.11
2018-12-10T12:18:02.161Z,995.97
2018-12-10T12:19:02.154Z,996.02
2018-12-10T12:20:02.151Z,996.03
2018-12-10T12:21:02.135Z,996.02
2018-12-10T12:22:05.026Z,996.04
2018-12-10T12:23:02.121Z,996.07
2018-12-10T12:24:02.122Z,996.01
2018-12-10T12:25:02.124Z,995.95
2018-12-10T12:26:02.179Z,995.99
2018-12-10T12:27:02.095Z,995.95
2018-12-10T12:28:02.087Z,995.92
2018-12-10T12:29:02.079Z,995.92
2018-12-10T12:30:02.076Z,995.92
2018-12-10T12:31:02.067Z,995.91
2018-12-10T12:32:02.067Z,995.93
2018-12-10T12:33:02.059Z,995.96